sensor_id;sensor_type;location;lat;lon;timestamp;pressure;altitude;pressure_sealevel;temperature;humidity
7109;BME280;29079;41.930;25.558;2023-04-29T00:01:25;99834.84;;;7.25;86.69
7109;BME280;29079;41.930;25.558;2023-04-29T00:03:58;99833.69;;;7.16;84.56
7109;BME280;29079;41.930;25.558;2023-04-29T00:06:32;99835.28;;;6.93;86.12
7109;BME280;29079;41.930;25.558;2023-04-29T00:09:05;99841.00;;;7.12;84.67
7109;BME280;29079;41.930;25.558;2023-04-29T00:11:39;99836.44;;;7.02;85.54
7109;BME280;29079;41.930;25.558;2023-04-29T00:14:12;99828.88;;;7.34;85.57
7109;BME280;29079;41.930;25.558;2023-04-29T00:16:45;99827.72;;;6.87;85.47
7109;BME280;29079;41.930;25.558;2023-04-29T00:19:18;99825.72;;;6.77;85.11
7109;BME280;29079;41.930;25.558;2023-04-29T00:21:52;99825.25;;;6.45;86.41
7109;BME280;29079;41.930;25.558;2023-04-29T00:24:26;99820.69;;;6.60;85.51
7109;BME280;29079;41.930;25.558;2023-04-29T00:26:59;99822.31;;;6.75;85.64
7109;BME280;29079;41.930;25.558;2023-04-29T00:29:33;99826.56;;;7.04;88.37
7109;BME280;29079;41.930;25.558;2023-04-29T00:32:06;99827.94;;;7.35;85.23
7109;BME280;29079;41.930;25.558;2023-04-29T00:34:39;99827.19;;;7.20;86.56
7109;BME280;29079;41.930;25.558;2023-04-29T00:37:13;99823.41;;;6.99;83.51
7109;BME280;29079;41.930;25.558;2023-04-29T00:39:46;99824.44;;;6.70;84.54
7109;BME280;29079;41.930;25.558;2023-04-29T00:42:20;99824.00;;;6.76;86.33
7109;BME280;29079;41.930;25.558;2023-04-29T00:44:53;99825.63;;;7.18;86.76
7109;BME280;29079;41.930;25.558;2023-04-29T00:47:26;99821.75;;;7.22;83.83
7109;BME280;29079;41.930;25.558;2023-04-29T00:49:59;99823.78;;;6.79;84.64
7109;BME280;29079;41.930;25.558;2023-04-29T00:52:34;99818.25;;;6.57;85.60
7109;BME280;29079;41.930;25.558;2023-04-29T00:55:09;99812.22;;;6.68;85.09
7109;BME280;29079;41.930;25.558;2023-04-29T00:57:44;99818.69;;;6.89;87.34
7109;BME280;29079;41.930;25.558;2023-04-29T01:00:19;99825.28;;;7.09;83.59
7109;BME280;29079;41.930;25.558;2023-04-29T01:02:52;99824.63;;;7.19;82.76
7109;BME280;29079;41.930;25.558;2023-04-29T01:05:25;99819.31;;;7.19;83.87
7109;BME280;29079;41.930;25.558;2023-04-29T01:08:06;99827.00;;;7.10;82.56
7109;BME280;29079;41.930;25.558;2023-04-29T01:10:43;99825.50;;;6.80;84.20
7109;BME280;29079;41.930;25.558;2023-04-29T01:13:17;99825.19;;;6.98;83.36
7109;BME280;29079;41.930;25.558;2023-04-29T01:15:53;99830.28;;;7.14;83.12
7109;BME280;29079;41.930;25.558;2023-04-29T01:18:31;99831.44;;;7.23;83.43
7109;BME280;29079;41.930;25.558;2023-04-29T01:21:05;99819.34;;;6.80;83.72
7109;BME280;29079;41.930;25.558;2023-04-29T01:23:39;99826.66;;;6.89;83.12
7109;BME280;29079;41.930;25.558;2023-04-29T01:26:13;99823.47;;;7.36;82.47
7109;BME280;29079;41.930;25.558;2023-04-29T01:28:49;99822.88;;;7.56;84.09
7109;BME280;29079;41.930;25.558;2023-04-29T01:31:30;99826.56;;;7.17;83.43
7109;BME280;29079;41.930;25.558;2023-04-29T01:34:07;99815.72;;;6.81;84.71
7109;BME280;29079;41.930;25.558;2023-04-29T01:36:43;99816.72;;;6.93;84.39
7109;BME280;29079;41.930;25.558;2023-04-29T01:39:23;99813.00;;;6.83;84.91
7109;BME280;29079;41.930;25.558;2023-04-29T01:42:01;99805.22;;;6.54;85.25
7109;BME280;29079;41.930;25.558;2023-04-29T01:44:35;99799.50;;;6.86;85.10
7109;BME280;29079;41.930;25.558;2023-04-29T01:47:08;99800.66;;;6.56;84.25
7109;BME280;29079;41.930;25.558;2023-04-29T01:49:43;99803.44;;;6.93;83.72
7109;BME280;29079;41.930;25.558;2023-04-29T01:52:17;99796.31;;;6.80;83.29
7109;BME280;29079;41.930;25.558;2023-04-29T01:54:52;99793.44;;;6.58;85.69
7109;BME280;29079;41.930;25.558;2023-04-29T01:57:28;99794.41;;;6.70;84.82
7109;BME280;29079;41.930;25.558;2023-04-29T02:00:01;99785.88;;;6.52;84.28
7109;BME280;29079;41.930;25.558;2023-04-29T02:02:35;99796.72;;;6.61;84.81
7109;BME280;29079;41.930;25.558;2023-04-29T02:05:08;99795.75;;;6.50;84.61
7109;BME280;29079;41.930;25.558;2023-04-29T02:07:41;99794.13;;;7.50;87.08
7109;BME280;29079;41.930;25.558;2023-04-29T02:10:16;99803.09;;;6.85;84.01
7109;BME280;29079;41.930;25.558;2023-04-29T02:12:51;99799.16;;;6.52;84.77
7109;BME280;29079;41.930;25.558;2023-04-29T02:15:25;99797.69;;;6.73;85.47
7109;BME280;29079;41.930;25.558;2023-04-29T02:18:02;99796.75;;;7.00;82.77
7109;BME280;29079;41.930;25.558;2023-04-29T02:20:36;99799.34;;;6.49;84.48
7109;BME280;29079;41.930;25.558;2023-04-29T02:23:09;99791.97;;;6.67;84.67
7109;BME280;29079;41.930;25.558;2023-04-29T02:25:43;99786.16;;;7.50;86.13
7109;BME280;29079;41.930;25.558;2023-04-29T02:28:16;99791.88;;;7.81;85.84
7109;BME280;29079;41.930;25.558;2023-04-29T02:30:49;99782.56;;;7.99;83.69
7109;BME280;29079;41.930;25.558;2023-04-29T02:33:22;99779.66;;;7.54;82.75
7109;BME280;29079;41.930;25.558;2023-04-29T02:35:56;99784.53;;;7.10;86.45
7109;BME280;29079;41.930;25.558;2023-04-29T02:38:30;99775.28;;;7.90;82.77
7109;BME280;29079;41.930;25.558;2023-04-29T02:41:05;99779.66;;;7.54;82.06
7109;BME280;29079;41.930;25.558;2023-04-29T02:43:38;99780.28;;;7.08;84.65
7109;BME280;29079;41.930;25.558;2023-04-29T02:46:12;99782.34;;;6.25;86.31
7109;BME280;29079;41.930;25.558;2023-04-29T02:48:46;99776.84;;;6.28;88.73
7109;BME280;29079;41.930;25.558;2023-04-29T02:51:19;99785.28;;;6.74;87.42
7109;BME280;29079;41.930;25.558;2023-04-29T02:53:53;99796.00;;;6.59;85.58
7109;BME280;29079;41.930;25.558;2023-04-29T02:56:28;99787.69;;;6.51;87.21
7109;BME280;29079;41.930;25.558;2023-04-29T02:59:01;99786.72;;;6.39;85.80
7109;BME280;29079;41.930;25.558;2023-04-29T03:01:34;99784.81;;;6.41;87.55
7109;BME280;29079;41.930;25.558;2023-04-29T03:04:09;99797.25;;;5.86;86.73
7109;BME280;29079;41.930;25.558;2023-04-29T03:06:42;99786.94;;;5.82;87.47
7109;BME280;29079;41.930;25.558;2023-04-29T03:09:15;99793.50;;;5.76;87.43
7109;BME280;29079;41.930;25.558;2023-04-29T03:11:49;99798.81;;;6.03;86.65
7109;BME280;29079;41.930;25.558;2023-04-29T03:14:22;99795.78;;;5.95;87.46
7109;BME280;29079;41.930;25.558;2023-04-29T03:16:58;99796.19;;;6.03;88.07
7109;BME280;29079;41.930;25.558;2023-04-29T03:19:32;99800.84;;;6.13;86.75
7109;BME280;29079;41.930;25.558;2023-04-29T03:22:06;99803.91;;;6.06;87.75
7109;BME280;29079;41.930;25.558;2023-04-29T03:24:41;99810.97;;;5.79;86.47
7109;BME280;29079;41.930;25.558;2023-04-29T03:27:16;99807.97;;;5.70;87.73
7109;BME280;29079;41.930;25.558;2023-04-29T03:29:50;99811.63;;;5.55;87.77
7109;BME280;29079;41.930;25.558;2023-04-29T03:32:24;99808.13;;;5.82;86.71
7109;BME280;29079;41.930;25.558;2023-04-29T03:34:57;99805.59;;;5.80;87.01
7109;BME280;29079;41.930;25.558;2023-04-29T03:37:30;99807.53;;;5.64;87.59
7109;BME280;29079;41.930;25.558;2023-04-29T03:40:04;99803.19;;;5.90;86.83
7109;BME280;29079;41.930;25.558;2023-04-29T03:42:39;99808.94;;;5.97;86.01
7109;BME280;29079;41.930;25.558;2023-04-29T03:45:12;99812.22;;;6.15;86.05
7109;BME280;29079;41.930;25.558;2023-04-29T03:47:45;99814.09;;;6.13;85.33
7109;BME280;29079;41.930;25.558;2023-04-29T03:50:18;99809.44;;;5.89;85.53
7109;BME280;29079;41.930;25.558;2023-04-29T03:52:51;99815.13;;;5.97;87.35
7109;BME280;29079;41.930;25.558;2023-04-29T03:55:24;99816.44;;;6.04;84.56
7109;BME280;29079;41.930;25.558;2023-04-29T03:57:59;99811.97;;;6.05;88.63
7109;BME280;29079;41.930;25.558;2023-04-29T04:00:32;99827.03;;;5.90;85.93
7109;BME280;29079;41.930;25.558;2023-04-29T04:03:05;99822.97;;;5.84;85.22
7109;BME280;29079;41.930;25.558;2023-04-29T04:05:39;99821.47;;;5.80;85.77
7109;BME280;29079;41.930;25.558;2023-04-29T04:08:13;99818.03;;;5.51;87.17
7109;BME280;29079;41.930;25.558;2023-04-29T04:10:46;99823.63;;;5.88;86.50
7109;BME280;29079;41.930;25.558;2023-04-29T04:13:20;99829.88;;;5.87;86.75
7109;BME280;29079;41.930;25.558;2023-04-29T04:15:54;99825.69;;;6.12;85.38
7109;BME280;29079;41.930;25.558;2023-04-29T04:18:27;99820.84;;;6.04;84.93
7109;BME280;29079;41.930;25.558;2023-04-29T04:21:04;99823.97;;;5.96;85.72
7109;BME280;29079;41.930;25.558;2023-04-29T04:23:37;99824.22;;;6.20;84.73
7109;BME280;29079;41.930;25.558;2023-04-29T04:26:11;99822.88;;;6.00;85.46
7109;BME280;29079;41.930;25.558;2023-04-29T04:28:46;99830.19;;;6.37;85.25
7109;BME280;29079;41.930;25.558;2023-04-29T04:31:19;99830.09;;;6.38;84.74
7109;BME280;29079;41.930;25.558;2023-04-29T04:33:52;99824.09;;;6.62;85.88
7109;BME280;29079;41.930;25.558;2023-04-29T04:36:25;99829.59;;;6.59;84.17
7109;BME280;29079;41.930;25.558;2023-04-29T04:38:59;99822.13;;;6.38;85.78
7109;BME280;29079;41.930;25.558;2023-04-29T04:41:32;99823.91;;;6.25;84.02
7109;BME280;29079;41.930;25.558;2023-04-29T04:44:06;99824.09;;;6.62;85.10
7109;BME280;29079;41.930;25.558;2023-04-29T04:46:39;99824.44;;;6.83;84.77
7109;BME280;29079;41.930;25.558;2023-04-29T04:49:12;99826.75;;;6.49;83.82
7109;BME280;29079;41.930;25.558;2023-04-29T04:51:45;99826.75;;;6.49;83.74
7109;BME280;29079;41.930;25.558;2023-04-29T04:54:18;99832.91;;;6.62;83.99
7109;BME280;29079;41.930;25.558;2023-04-29T04:56:52;99827.41;;;6.66;83.65
7109;BME280;29079;41.930;25.558;2023-04-29T04:59:26;99827.19;;;6.82;84.27
7109;BME280;29079;41.930;25.558;2023-04-29T05:01:59;99836.34;;;7.03;83.36
7109;BME280;29079;41.930;25.558;2023-04-29T05:04:32;99835.78;;;7.24;86.25
7109;BME280;29079;41.930;25.558;2023-04-29T05:07:06;99846.75;;;7.06;84.14
7109;BME280;29079;41.930;25.558;2023-04-29T05:09:39;99840.78;;;7.28;83.66
7109;BME280;29079;41.930;25.558;2023-04-29T05:12:12;99839.94;;;7.41;83.87
7109;BME280;29079;41.930;25.558;2023-04-29T05:14:47;99835.69;;;7.75;83.34
7109;BME280;29079;41.930;25.558;2023-04-29T05:17:24;99834.66;;;8.02;83.85
7109;BME280;29079;41.930;25.558;2023-04-29T05:19:57;99831.13;;;8.26;84.89
7109;BME280;29079;41.930;25.558;2023-04-29T05:22:30;99840.44;;;8.44;82.13
7109;BME280;29079;41.930;25.558;2023-04-29T05:25:03;99829.09;;;8.53;81.80
7109;BME280;29079;41.930;25.558;2023-04-29T05:27:36;99825.72;;;8.51;82.56
7109;BME280;29079;41.930;25.558;2023-04-29T05:30:12;99827.97;;;8.80;83.16
7109;BME280;29079;41.930;25.558;2023-04-29T05:32:45;99831.50;;;8.92;82.64
7109;BME280;29079;41.930;25.558;2023-04-29T05:35:19;99824.41;;;9.27;83.14
7109;BME280;29079;41.930;25.558;2023-04-29T05:37:52;99828.75;;;9.05;81.60
7109;BME280;29079;41.930;25.558;2023-04-29T05:40:25;99831.66;;;9.24;80.84
7109;BME280;29079;41.930;25.558;2023-04-29T05:42:58;99838.94;;;9.34;80.59
7109;BME280;29079;41.930;25.558;2023-04-29T05:45:34;99837.94;;;9.35;80.43
7109;BME280;29079;41.930;25.558;2023-04-29T05:48:06;99827.53;;;9.66;79.48
7109;BME280;29079;41.930;25.558;2023-04-29T05:50:39;99829.19;;;9.78;78.95
7109;BME280;29079;41.930;25.558;2023-04-29T05:53:12;99831.84;;;9.89;78.30
7109;BME280;29079;41.930;25.558;2023-04-29T05:55:45;99831.97;;;9.99;78.44
7109;BME280;29079;41.930;25.558;2023-04-29T05:58:22;99830.13;;;10.32;78.84
7109;BME280;29079;41.930;25.558;2023-04-29T06:00:57;99828.63;;;10.51;78.36
7109;BME280;29079;41.930;25.558;2023-04-29T06:03:30;99828.22;;;10.34;77.61
7109;BME280;29079;41.930;25.558;2023-04-29T06:06:03;99827.00;;;10.38;76.29
7109;BME280;29079;41.930;25.558;2023-04-29T06:08:37;99827.47;;;10.43;75.75
7109;BME280;29079;41.930;25.558;2023-04-29T06:11:10;99819.13;;;10.58;74.56
7109;BME280;29079;41.930;25.558;2023-04-29T06:13:43;99827.75;;;10.83;75.54
7109;BME280;29079;41.930;25.558;2023-04-29T06:16:18;99823.56;;;10.69;73.87
7109;BME280;29079;41.930;25.558;2023-04-29T06:18:51;99831.78;;;10.77;72.58
7109;BME280;29079;41.930;25.558;2023-04-29T06:21:24;99825.47;;;10.78;74.09
7109;BME280;29079;41.930;25.558;2023-04-29T06:23:58;99814.84;;;10.88;73.97
7109;BME280;29079;41.930;25.558;2023-04-29T06:26:31;99821.59;;;10.92;74.07
7109;BME280;29079;41.930;25.558;2023-04-29T06:29:05;99825.31;;;11.01;73.24
7109;BME280;29079;41.930;25.558;2023-04-29T06:31:39;99823.16;;;11.15;73.14
7109;BME280;29079;41.930;25.558;2023-04-29T06:34:12;99819.88;;;11.33;71.85
7109;BME280;29079;41.930;25.558;2023-04-29T06:36:45;99808.78;;;11.07;72.25
7109;BME280;29079;41.930;25.558;2023-04-29T06:39:18;99812.00;;;11.10;70.32
7109;BME280;29079;41.930;25.558;2023-04-29T06:41:51;99809.03;;;11.35;71.46
7109;BME280;29079;41.930;25.558;2023-04-29T06:44:24;99799.28;;;11.24;69.64
7109;BME280;29079;41.930;25.558;2023-04-29T06:46:59;99798.97;;;11.48;72.70
7109;BME280;29079;41.930;25.558;2023-04-29T06:49:32;99806.47;;;11.23;70.75
7109;BME280;29079;41.930;25.558;2023-04-29T06:52:06;99799.00;;;11.27;72.41
7109;BME280;29079;41.930;25.558;2023-04-29T06:54:39;99801.19;;;11.12;71.88
7109;BME280;29079;41.930;25.558;2023-04-29T06:57:12;99795.03;;;11.11;72.07
7109;BME280;29079;41.930;25.558;2023-04-29T06:59:45;99792.28;;;11.32;73.34
7109;BME280;29079;41.930;25.558;2023-04-29T07:02:20;99789.28;;;11.57;71.69
7109;BME280;29079;41.930;25.558;2023-04-29T07:04:53;99789.69;;;11.52;69.22
7109;BME280;29079;41.930;25.558;2023-04-29T07:07:26;99792.97;;;11.65;69.17
7109;BME280;29079;41.930;25.558;2023-04-29T07:09:59;99787.09;;;11.81;73.03
7109;BME280;29079;41.930;25.558;2023-04-29T07:12:32;99781.63;;;11.93;69.89
7109;BME280;29079;41.930;25.558;2023-04-29T07:15:06;99782.81;;;12.10;68.94
7109;BME280;29079;41.930;25.558;2023-04-29T07:17:41;99784.03;;;12.15;70.15
7109;BME280;29079;41.930;25.558;2023-04-29T07:20:14;99781.25;;;12.17;67.52
7109;BME280;29079;41.930;25.558;2023-04-29T07:22:46;99783.50;;;12.22;65.58
7109;BME280;29079;41.930;25.558;2023-04-29T07:25:19;99784.19;;;12.33;66.78
7109;BME280;29079;41.930;25.558;2023-04-29T07:27:54;99783.06;;;12.46;61.51
7109;BME280;29079;41.930;25.558;2023-04-29T07:30:28;99768.97;;;12.44;63.52
7109;BME280;29079;41.930;25.558;2023-04-29T07:33:02;99780.38;;;12.46;59.18
7109;BME280;29079;41.930;25.558;2023-04-29T07:35:36;99782.63;;;12.21;58.09
7109;BME280;29079;41.930;25.558;2023-04-29T07:38:08;99778.13;;;12.31;60.17
7109;BME280;29079;41.930;25.558;2023-04-29T07:40:41;99789.97;;;12.29;59.69
7109;BME280;29079;41.930;25.558;2023-04-29T07:43:15;99778.84;;;12.43;59.17
7109;BME280;29079;41.930;25.558;2023-04-29T07:45:48;99778.84;;;12.33;61.60
7109;BME280;29079;41.930;25.558;2023-04-29T07:48:23;99777.16;;;12.52;59.31
7109;BME280;29079;41.930;25.558;2023-04-29T07:50:56;99774.88;;;12.57;61.26
7109;BME280;29079;41.930;25.558;2023-04-29T07:53:29;99767.66;;;12.67;57.24
7109;BME280;29079;41.930;25.558;2023-04-29T07:56:03;99766.53;;;12.70;56.94
7109;BME280;29079;41.930;25.558;2023-04-29T07:58:37;99762.66;;;12.92;56.20
7109;BME280;29079;41.930;25.558;2023-04-29T08:01:10;99760.06;;;12.63;55.61
7109;BME280;29079;41.930;25.558;2023-04-29T08:03:45;99764.53;;;12.82;58.78
7109;BME280;29079;41.930;25.558;2023-04-29T08:06:19;99755.75;;;12.99;55.29
7109;BME280;29079;41.930;25.558;2023-04-29T08:08:52;99754.06;;;12.98;56.23
7109;BME280;29079;41.930;25.558;2023-04-29T08:11:26;99746.25;;;13.15;59.90
7109;BME280;29079;41.930;25.558;2023-04-29T08:14:00;99751.34;;;13.08;58.61
7109;BME280;29079;41.930;25.558;2023-04-29T08:16:33;99741.06;;;13.31;56.94
7109;BME280;29079;41.930;25.558;2023-04-29T08:19:08;99745.88;;;13.65;55.36
7109;BME280;29079;41.930;25.558;2023-04-29T08:21:41;99744.84;;;13.66;55.08
7109;BME280;29079;41.930;25.558;2023-04-29T08:24:15;99740.06;;;13.70;54.31
7109;BME280;29079;41.930;25.558;2023-04-29T08:26:48;99734.38;;;13.55;53.51
7109;BME280;29079;41.930;25.558;2023-04-29T08:29:22;99728.19;;;13.72;52.89
7109;BME280;29079;41.930;25.558;2023-04-29T08:31:55;99727.25;;;13.82;53.29
7109;BME280;29079;41.930;25.558;2023-04-29T08:34:29;99723.75;;;13.99;55.31
7109;BME280;29079;41.930;25.558;2023-04-29T08:37:04;99714.06;;;14.06;52.78
7109;BME280;29079;41.930;25.558;2023-04-29T08:39:37;99715.16;;;14.14;53.70
7109;BME280;29079;41.930;25.558;2023-04-29T08:42:10;99716.28;;;14.29;53.41
7109;BME280;29079;41.930;25.558;2023-04-29T08:44:43;99714.69;;;14.44;52.19
7109;BME280;29079;41.930;25.558;2023-04-29T08:47:17;99709.88;;;14.48;51.18
7109;BME280;29079;41.930;25.558;2023-04-29T08:49:51;99709.41;;;14.35;50.59
7109;BME280;29079;41.930;25.558;2023-04-29T08:52:26;99703.38;;;14.33;48.17
7109;BME280;29079;41.930;25.558;2023-04-29T08:55:00;99706.06;;;14.33;47.16
7109;BME280;29079;41.930;25.558;2023-04-29T08:57:34;99703.63;;;14.39;48.31
7109;BME280;29079;41.930;25.558;2023-04-29T09:00:10;99702.81;;;14.47;48.58
7109;BME280;29079;41.930;25.558;2023-04-29T09:02:44;99695.88;;;14.36;48.61
7109;BME280;29079;41.930;25.558;2023-04-29T09:05:20;99701.75;;;14.40;49.31
7109;BME280;29079;41.930;25.558;2023-04-29T09:07:54;99695.75;;;14.64;49.85
7109;BME280;29079;41.930;25.558;2023-04-29T09:10:31;99687.53;;;14.48;46.21
7109;BME280;29079;41.930;25.558;2023-04-29T09:13:04;99694.34;;;14.34;46.17
7109;BME280;29079;41.930;25.558;2023-04-29T09:15:38;99688.84;;;14.61;47.20
7109;BME280;29079;41.930;25.558;2023-04-29T09:18:13;99687.13;;;14.60;44.43
7109;BME280;29079;41.930;25.558;2023-04-29T09:21:12;99677.63;;;14.66;43.36
7109;BME280;29079;41.930;25.558;2023-04-29T09:23:46;99684.66;;;14.93;42.05
7109;BME280;29079;41.930;25.558;2023-04-29T09:26:19;99676.69;;;14.84;42.04
7109;BME280;29079;41.930;25.558;2023-04-29T09:29:04;99689.06;;;14.68;39.05
7109;BME280;29079;41.930;25.558;2023-04-29T09:31:38;99679.72;;;14.80;40.55
7109;BME280;29079;41.930;25.558;2023-04-29T09:34:11;99678.72;;;14.82;40.38
7109;BME280;29079;41.930;25.558;2023-04-29T09:36:48;99672.94;;;14.68;41.14
7109;BME280;29079;41.930;25.558;2023-04-29T09:39:22;99666.00;;;14.92;41.13
7109;BME280;29079;41.930;25.558;2023-04-29T09:41:58;99668.47;;;15.20;41.00
7109;BME280;29079;41.930;25.558;2023-04-29T09:44:33;99670.13;;;15.12;40.08
7109;BME280;29079;41.930;25.558;2023-04-29T09:47:08;99657.50;;;15.05;41.94
7109;BME280;29079;41.930;25.558;2023-04-29T09:49:42;99667.53;;;15.03;40.35
7109;BME280;29079;41.930;25.558;2023-04-29T09:52:18;99655.09;;;14.93;43.02
7109;BME280;29079;41.930;25.558;2023-04-29T09:54:51;99648.00;;;14.84;37.24
7109;BME280;29079;41.930;25.558;2023-04-29T09:57:24;99641.72;;;14.75;36.26
7109;BME280;29079;41.930;25.558;2023-04-29T10:00:15;99637.78;;;14.88;36.58
7109;BME280;29079;41.930;25.558;2023-04-29T10:02:48;99637.00;;;15.04;38.41
7109;BME280;29079;41.930;25.558;2023-04-29T10:05:22;99633.31;;;15.05;38.72
7109;BME280;29079;41.930;25.558;2023-04-29T10:07:56;99620.25;;;15.18;39.60
7109;BME280;29079;41.930;25.558;2023-04-29T10:10:33;99627.84;;;15.31;37.52
7109;BME280;29079;41.930;25.558;2023-04-29T10:13:06;99619.78;;;15.31;38.64
7109;BME280;29079;41.930;25.558;2023-04-29T10:15:41;99610.84;;;15.22;41.99
7109;BME280;29079;41.930;25.558;2023-04-29T10:18:17;99603.31;;;15.42;39.00
7109;BME280;29079;41.930;25.558;2023-04-29T10:20:52;99609.38;;;15.69;41.81
7109;BME280;29079;41.930;25.558;2023-04-29T10:23:28;99605.88;;;15.69;38.48
7109;BME280;29079;41.930;25.558;2023-04-29T10:26:02;99601.63;;;15.41;37.98
7109;BME280;29079;41.930;25.558;2023-04-29T10:28:35;99598.09;;;15.32;39.64
7109;BME280;29079;41.930;25.558;2023-04-29T10:31:10;99594.94;;;15.78;40.05
7109;BME280;29079;41.930;25.558;2023-04-29T10:33:45;99595.59;;;15.64;37.66
7109;BME280;29079;41.930;25.558;2023-04-29T10:36:19;99594.97;;;15.87;41.28
7109;BME280;29079;41.930;25.558;2023-04-29T10:38:54;99591.41;;;15.94;36.27
7109;BME280;29079;41.930;25.558;2023-04-29T10:41:30;99581.69;;;15.93;39.42
7109;BME280;29079;41.930;25.558;2023-04-29T10:44:05;99585.84;;;16.12;35.78
7109;BME280;29079;41.930;25.558;2023-04-29T10:46:38;99585.84;;;16.04;37.21
7109;BME280;29079;41.930;25.558;2023-04-29T10:49:11;99582.00;;;16.15;35.40
7109;BME280;29079;41.930;25.558;2023-04-29T10:51:44;99575.72;;;16.23;36.84
7109;BME280;29079;41.930;25.558;2023-04-29T10:54:19;99579.06;;;16.33;39.82
7109;BME280;29079;41.930;25.558;2023-04-29T10:56:56;99578.72;;;16.28;35.00
7109;BME280;29079;41.930;25.558;2023-04-29T10:59:43;99569.66;;;16.29;35.25
7109;BME280;29079;41.930;25.558;2023-04-29T11:02:17;99569.84;;;16.19;35.12
7109;BME280;29079;41.930;25.558;2023-04-29T11:05:06;99562.91;;;16.41;37.03
7109;BME280;29079;41.930;25.558;2023-04-29T11:07:40;99562.03;;;16.49;35.64
7109;BME280;29079;41.930;25.558;2023-04-29T11:10:16;99563.63;;;16.66;35.52
7109;BME280;29079;41.930;25.558;2023-04-29T11:12:53;99568.66;;;16.69;34.54
7109;BME280;29079;41.930;25.558;2023-04-29T11:15:46;99565.16;;;16.69;34.86
7109;BME280;29079;41.930;25.558;2023-04-29T11:18:19;99560.22;;;16.89;35.50
7109;BME280;29079;41.930;25.558;2023-04-29T11:23:40;99545.53;;;16.44;40.87
7109;BME280;29079;41.930;25.558;2023-04-29T11:26:18;99543.94;;;16.66;34.44
7109;BME280;29079;41.930;25.558;2023-04-29T11:28:52;99544.34;;;16.46;36.94
7109;BME280;29079;41.930;25.558;2023-04-29T11:31:25;99544.84;;;16.50;33.43
7109;BME280;29079;41.930;25.558;2023-04-29T11:34:02;99549.44;;;16.41;38.27
7109;BME280;29079;41.930;25.558;2023-04-29T11:36:35;99537.16;;;16.30;38.42
7109;BME280;29079;41.930;25.558;2023-04-29T11:39:09;99544.16;;;16.56;38.54
7109;BME280;29079;41.930;25.558;2023-04-29T11:41:44;99540.84;;;16.38;32.12
7109;BME280;29079;41.930;25.558;2023-04-29T11:44:20;99528.00;;;16.56;34.66
7109;BME280;29079;41.930;25.558;2023-04-29T11:47:00;99537.44;;;16.44;34.99
7109;BME280;29079;41.930;25.558;2023-04-29T11:49:35;99524.84;;;16.44;34.41
7109;BME280;29079;41.930;25.558;2023-04-29T11:52:09;99518.38;;;16.62;43.65
7109;BME280;29079;41.930;25.558;2023-04-29T11:54:42;99517.75;;;16.51;35.63
7109;BME280;29079;41.930;25.558;2023-04-29T11:57:16;99513.38;;;16.50;37.05
7109;BME280;29079;41.930;25.558;2023-04-29T11:59:49;99503.47;;;16.74;38.31
7109;BME280;29079;41.930;25.558;2023-04-29T12:02:22;99496.34;;;16.90;39.67
7109;BME280;29079;41.930;25.558;2023-04-29T12:04:55;99496.69;;;16.86;37.13
7109;BME280;29079;41.930;25.558;2023-04-29T12:07:30;99492.00;;;16.80;46.16
7109;BME280;29079;41.930;25.558;2023-04-29T12:10:04;99484.75;;;16.89;38.65
7109;BME280;29079;41.930;25.558;2023-04-29T12:12:40;99483.88;;;16.88;35.80
7109;BME280;29079;41.930;25.558;2023-04-29T12:15:15;99474.06;;;16.96;33.17
7109;BME280;29079;41.930;25.558;2023-04-29T12:17:48;99475.38;;;17.00;33.77
7109;BME280;29079;41.930;25.558;2023-04-29T12:20:22;99463.66;;;16.93;32.39
7109;BME280;29079;41.930;25.558;2023-04-29T12:22:55;99470.09;;;16.83;32.94
7109;BME280;29079;41.930;25.558;2023-04-29T12:25:30;99464.50;;;16.62;32.01
7109;BME280;29079;41.930;25.558;2023-04-29T12:28:05;99460.91;;;16.69;40.35
7109;BME280;29079;41.930;25.558;2023-04-29T12:30:38;99460.75;;;16.94;39.77
7109;BME280;29079;41.930;25.558;2023-04-29T12:33:14;99460.72;;;17.02;42.81
7109;BME280;29079;41.930;25.558;2023-04-29T12:35:48;99453.81;;;17.00;35.56
7109;BME280;29079;41.930;25.558;2023-04-29T12:38:22;99449.56;;;17.05;39.85
7109;BME280;29079;41.930;25.558;2023-04-29T12:40:58;99441.34;;;16.99;42.58
7109;BME280;29079;41.930;25.558;2023-04-29T12:43:33;99447.06;;;17.04;37.42
7109;BME280;29079;41.930;25.558;2023-04-29T12:46:06;99436.56;;;17.09;41.51
7109;BME280;29079;41.930;25.558;2023-04-29T12:48:40;99431.88;;;17.03;40.97
7109;BME280;29079;41.930;25.558;2023-04-29T12:51:15;99428.97;;;16.90;33.53
7109;BME280;29079;41.930;25.558;2023-04-29T12:53:49;99428.13;;;17.12;39.64
7109;BME280;29079;41.930;25.558;2023-04-29T12:56:22;99422.19;;;17.17;34.59
7109;BME280;29079;41.930;25.558;2023-04-29T12:59:02;99429.56;;;17.00;33.58
7109;BME280;29079;41.930;25.558;2023-04-29T13:01:36;99420.69;;;16.91;33.32
7109;BME280;29079;41.930;25.558;2023-04-29T13:04:09;99418.22;;;17.04;41.30
7109;BME280;29079;41.930;25.558;2023-04-29T13:06:42;99411.28;;;17.10;40.87
7109;BME280;29079;41.930;25.558;2023-04-29T13:09:15;99404.34;;;17.31;40.24
7109;BME280;29079;41.930;25.558;2023-04-29T13:11:49;99413.06;;;17.18;34.32
7109;BME280;29079;41.930;25.558;2023-04-29T13:14:24;99411.88;;;17.20;34.51
7109;BME280;29079;41.930;25.558;2023-04-29T13:16:57;99409.03;;;17.37;45.97
7109;BME280;29079;41.930;25.558;2023-04-29T13:19:31;99406.22;;;17.30;35.25
7109;BME280;29079;41.930;25.558;2023-04-29T13:22:22;99407.78;;;17.25;42.55
7109;BME280;29079;41.930;25.558;2023-04-29T13:24:55;99404.69;;;17.13;33.40
7109;BME280;29079;41.930;25.558;2023-04-29T13:27:28;99396.13;;;17.09;33.97
7109;BME280;29079;41.930;25.558;2023-04-29T13:30:02;99396.19;;;17.01;33.24
7109;BME280;29079;41.930;25.558;2023-04-29T13:32:35;99389.47;;;17.20;34.56
7109;BME280;29079;41.930;25.558;2023-04-29T13:35:22;99385.94;;;17.19;40.61
7109;BME280;29079;41.930;25.558;2023-04-29T13:37:55;99382.13;;;17.29;38.12
7109;BME280;29079;41.930;25.558;2023-04-29T13:40:28;99383.50;;;17.25;34.95
7109;BME280;29079;41.930;25.558;2023-04-29T13:43:01;99378.19;;;17.16;44.77
7109;BME280;29079;41.930;25.558;2023-04-29T13:45:41;99373.06;;;17.07;35.55